sensor_id;sensor_type;location;lat;lon;timestamp;temperature;humidity
26621;DHT22;14253;44.840;10.444;2023-06-22T00:01:17;24.80;99.90
26621;DHT22;14253;44.840;10.444;2023-06-22T00:03:43;24.80;99.90
26621;DHT22;14253;44.840;10.444;2023-06-22T00:06:09;24.80;99.90
26621;DHT22;14253;44.840;10.444;2023-06-22T00:08:35;24.80;99.90
26621;DHT22;14253;44.840;10.444;2023-06-22T00:11:01;24.80;99.90
26621;DHT22;14253;44.840;10.444;2023-06-22T00:13:27;24.80;99.90
26621;DHT22;14253;44.840;10.444;2023-06-22T00:15:53;24.80;99.90
26621;DHT22;14253;44.840;10.444;2023-06-22T00:18:19;24.80;99.90
26621;DHT22;14253;44.840;10.444;2023-06-22T00:20:45;24.70;99.90
26621;DHT22;14253;44.840;10.444;2023-06-22T00:23:12;24.70;99.90
26621;DHT22;14253;44.840;10.444;2023-06-22T00:25:39;24.80;99.90
26621;DHT22;14253;44.840;10.444;2023-06-22T00:28:08;24.80;99.90
26621;DHT22;14253;44.840;10.444;2023-06-22T00:30:35;24.80;99.90
26621;DHT22;14253;44.840;10.444;2023-06-22T00:33:01;24.80;99.90
26621;DHT22;14253;44.840;10.444;2023-06-22T00:35:27;24.80;99.90
26621;DHT22;14253;44.840;10.444;2023-06-22T00:38:00;24.80;99.90
26621;DHT22;14253;44.840;10.444;2023-06-22T00:40:27;24.80;99.90
26621;DHT22;14253;44.840;10.444;2023-06-22T00:42:54;24.70;99.90
26621;DHT22;14253;44.840;10.444;2023-06-22T00:45:22;24.60;99.90
26621;DHT22;14253;44.840;10.444;2023-06-22T00:47:55;24.60;99.90
26621;DHT22;14253;44.840;10.444;2023-06-22T00:50:23;24.60;99.90
26621;DHT22;14253;44.840;10.444;2023-06-22T00:52:57;24.60;99.90
26621;DHT22;14253;44.840;10.444;2023-06-22T00:55:25;24.60;99.90
26621;DHT22;14253;44.840;10.444;2023-06-22T00:57:54;24.60;99.90
26621;DHT22;14253;44.840;10.444;2023-06-22T01:00:24;24.60;99.90
26621;DHT22;14253;44.840;10.444;2023-06-22T01:02:51;24.50;99.90
26621;DHT22;14253;44.840;10.444;2023-06-22T01:05:19;24.50;99.90
26621;DHT22;14253;44.840;10.444;2023-06-22T01:12:55;24.30;99.90
26621;DHT22;14253;44.840;10.444;2023-06-22T01:15:30;24.20;99.90
26621;DHT22;14253;44.840;10.444;2023-06-22T01:17:57;24.20;99.90
26621;DHT22;14253;44.840;10.444;2023-06-22T01:20:25;24.10;99.90
26621;DHT22;14253;44.840;10.444;2023-06-22T01:25:31;24.10;99.90
26621;DHT22;14253;44.840;10.444;2023-06-22T01:28:30;23.90;99.90
26621;DHT22;14253;44.840;10.444;2023-06-22T01:30:58;23.90;99.90
26621;DHT22;14253;44.840;10.444;2023-06-22T01:33:35;23.90;99.90
26621;DHT22;14253;44.840;10.444;2023-06-22T01:36:03;23.70;99.90
26621;DHT22;14253;44.840;10.444;2023-06-22T01:38:30;23.50;99.90
26621;DHT22;14253;44.840;10.444;2023-06-22T01:40:57;23.50;99.90
26621;DHT22;14253;44.840;10.444;2023-06-22T01:43:26;23.50;99.90
26621;DHT22;14253;44.840;10.444;2023-06-22T01:45:56;23.50;99.90
26621;DHT22;14253;44.840;10.444;2023-06-22T01:48:23;23.50;99.90
26621;DHT22;14253;44.840;10.444;2023-06-22T01:50:49;23.50;99.90
26621;DHT22;14253;44.840;10.444;2023-06-22T01:53:16;23.60;99.90
26621;DHT22;14253;44.840;10.444;2023-06-22T01:55:42;23.60;99.90
26621;DHT22;14253;44.840;10.444;2023-06-22T01:58:08;23.60;99.90
26621;DHT22;14253;44.840;10.444;2023-06-22T02:00:40;23.70;99.90
26621;DHT22;14253;44.840;10.444;2023-06-22T02:03:13;23.70;99.90
26621;DHT22;14253;44.840;10.444;2023-06-22T02:05:58;23.60;99.90
26621;DHT22;14253;44.840;10.444;2023-06-22T02:08:31;23.60;99.90
26621;DHT22;14253;44.840;10.444;2023-06-22T02:10:59;23.50;99.90
26621;DHT22;14253;44.840;10.444;2023-06-22T02:13:26;23.50;99.90
26621;DHT22;14253;44.840;10.444;2023-06-22T02:15:53;23.60;99.90
26621;DHT22;14253;44.840;10.444;2023-06-22T02:18:20;23.50;99.90
26621;DHT22;14253;44.840;10.444;2023-06-22T02:20:46;23.50;99.90
26621;DHT22;14253;44.840;10.444;2023-06-22T02:23:12;23.40;99.90
26621;DHT22;14253;44.840;10.444;2023-06-22T02:25:38;23.30;99.90
26621;DHT22;14253;44.840;10.444;2023-06-22T02:28:05;23.20;99.90
26621;DHT22;14253;44.840;10.444;2023-06-22T02:30:31;23.10;99.90
26621;DHT22;14253;44.840;10.444;2023-06-22T02:32:59;23.00;99.90
26621;DHT22;14253;44.840;10.444;2023-06-22T02:35:26;22.90;99.90
26621;DHT22;14253;44.840;10.444;2023-06-22T02:37:52;23.00;99.90
26621;DHT22;14253;44.840;10.444;2023-06-22T02:40:18;23.00;99.90
26621;DHT22;14253;44.840;10.444;2023-06-22T02:42:44;23.00;99.90
26621;DHT22;14253;44.840;10.444;2023-06-22T02:45:10;22.90;99.90
26621;DHT22;14253;44.840;10.444;2023-06-22T02:47:36;23.00;99.90
26621;DHT22;14253;44.840;10.444;2023-06-22T02:50:02;23.00;99.90
26621;DHT22;14253;44.840;10.444;2023-06-22T02:52:32;23.00;99.90
26621;DHT22;14253;44.840;10.444;2023-06-22T02:54:58;23.10;99.90
26621;DHT22;14253;44.840;10.444;2023-06-22T02:57:25;22.90;99.90
26621;DHT22;14253;44.840;10.444;2023-06-22T02:59:51;23.00;99.90
26621;DHT22;14253;44.840;10.444;2023-06-22T03:02:17;23.00;99.90
26621;DHT22;14253;44.840;10.444;2023-06-22T03:04:44;23.10;99.90
26621;DHT22;14253;44.840;10.444;2023-06-22T03:07:10;23.10;99.90
26621;DHT22;14253;44.840;10.444;2023-06-22T03:09:36;23.10;99.90
26621;DHT22;14253;44.840;10.444;2023-06-22T03:12:02;23.10;99.90
26621;DHT22;14253;44.840;10.444;2023-06-22T03:14:36;23.20;99.90
26621;DHT22;14253;44.840;10.444;2023-06-22T03:17:04;23.20;99.90
26621;DHT22;14253;44.840;10.444;2023-06-22T03:19:30;23.10;99.90
26621;DHT22;14253;44.840;10.444;2023-06-22T03:22:00;23.10;99.90
26621;DHT22;14253;44.840;10.444;2023-06-22T03:24:26;23.10;99.90
26621;DHT22;14253;44.840;10.444;2023-06-22T03:26:55;23.00;99.90
26621;DHT22;14253;44.840;10.444;2023-06-22T03:29:23;23.00;99.90
26621;DHT22;14253;44.840;10.444;2023-06-22T03:31:49;23.00;99.90
26621;DHT22;14253;44.840;10.444;2023-06-22T03:34:16;23.00;99.90
26621;DHT22;14253;44.840;10.444;2023-06-22T03:36:43;23.00;99.90
26621;DHT22;14253;44.840;10.444;2023-06-22T03:39:10;23.00;99.90
26621;DHT22;14253;44.840;10.444;2023-06-22T03:41:36;23.00;99.90
26621;DHT22;14253;44.840;10.444;2023-06-22T03:44:03;23.00;99.90
26621;DHT22;14253;44.840;10.444;2023-06-22T03:46:28;22.90;99.90
26621;DHT22;14253;44.840;10.444;2023-06-22T03:48:54;23.00;99.90
26621;DHT22;14253;44.840;10.444;2023-06-22T03:51:20;23.00;99.90
26621;DHT22;14253;44.840;10.444;2023-06-22T03:53:46;23.10;99.90
26621;DHT22;14253;44.840;10.444;2023-06-22T03:56:13;23.10;99.90
26621;DHT22;14253;44.840;10.444;2023-06-22T03:58:45;23.10;99.90
26621;DHT22;14253;44.840;10.444;2023-06-22T04:01:11;23.10;99.90
26621;DHT22;14253;44.840;10.444;2023-06-22T04:03:41;23.10;99.90
26621;DHT22;14253;44.840;10.444;2023-06-22T04:06:07;23.00;99.90
26621;DHT22;14253;44.840;10.444;2023-06-22T04:08:33;23.00;99.90
26621;DHT22;14253;44.840;10.444;2023-06-22T04:10:59;23.00;99.90
26621;DHT22;14253;44.840;10.444;2023-06-22T04:13:25;22.90;99.90
26621;DHT22;14253;44.840;10.444;2023-06-22T04:15:51;22.90;99.90
26621;DHT22;14253;44.840;10.444;2023-06-22T04:18:17;22.90;99.90
26621;DHT22;14253;44.840;10.444;2023-06-22T04:20:42;22.90;99.90
26621;DHT22;14253;44.840;10.444;2023-06-22T04:23:13;22.90;99.90
26621;DHT22;14253;44.840;10.444;2023-06-22T04:25:39;22.90;99.90
26621;DHT22;14253;44.840;10.444;2023-06-22T04:28:05;22.90;99.90
26621;DHT22;14253;44.840;10.444;2023-06-22T04:30:38;23.00;99.90
26621;DHT22;14253;44.840;10.444;2023-06-22T04:33:15;23.10;99.90
26621;DHT22;14253;44.840;10.444;2023-06-22T04:35:41;23.10;99.90
26621;DHT22;14253;44.840;10.444;2023-06-22T04:38:07;23.10;99.90
26621;DHT22;14253;44.840;10.444;2023-06-22T04:40:33;23.20;99.90
26621;DHT22;14253;44.840;10.444;2023-06-22T04:42:59;23.20;99.90
26621;DHT22;14253;44.840;10.444;2023-06-22T04:45:28;23.20;99.90
26621;DHT22;14253;44.840;10.444;2023-06-22T04:47:57;23.20;99.90
26621;DHT22;14253;44.840;10.444;2023-06-22T04:50:23;23.30;99.90
26621;DHT22;14253;44.840;10.444;2023-06-22T04:52:50;23.40;99.90
26621;DHT22;14253;44.840;10.444;2023-06-22T04:55:17;23.40;99.90
26621;DHT22;14253;44.840;10.444;2023-06-22T04:57:47;23.40;99.90
26621;DHT22;14253;44.840;10.444;2023-06-22T05:00:17;23.50;99.90
26621;DHT22;14253;44.840;10.444;2023-06-22T05:02:46;23.40;99.90
26621;DHT22;14253;44.840;10.444;2023-06-22T05:05:13;23.40;99.90
26621;DHT22;14253;44.840;10.444;2023-06-22T05:07:43;23.50;99.90
26621;DHT22;14253;44.840;10.444;2023-06-22T05:10:11;23.50;99.90
26621;DHT22;14253;44.840;10.444;2023-06-22T05:12:38;23.40;99.90
26621;DHT22;14253;44.840;10.444;2023-06-22T05:15:06;23.40;99.90
26621;DHT22;14253;44.840;10.444;2023-06-22T05:17:33;23.40;99.90
26621;DHT22;14253;44.840;10.444;2023-06-22T05:19:59;23.40;99.90
26621;DHT22;14253;44.840;10.444;2023-06-22T05:22:25;23.50;99.90
26621;DHT22;14253;44.840;10.444;2023-06-22T05:24:51;23.60;99.90
26621;DHT22;14253;44.840;10.444;2023-06-22T05:27:17;23.70;99.90
26621;DHT22;14253;44.840;10.444;2023-06-22T05:29:43;23.80;99.90
26621;DHT22;14253;44.840;10.444;2023-06-22T05:32:09;24.00;99.90
26621;DHT22;14253;44.840;10.444;2023-06-22T05:34:35;24.10;99.90
26621;DHT22;14253;44.840;10.444;2023-06-22T05:37:02;24.30;99.90
26621;DHT22;14253;44.840;10.444;2023-06-22T05:39:28;24.40;99.90
26621;DHT22;14253;44.840;10.444;2023-06-22T05:41:54;24.50;99.90
26621;DHT22;14253;44.840;10.444;2023-06-22T05:44:20;24.50;99.90
26621;DHT22;14253;44.840;10.444;2023-06-22T05:46:46;24.60;99.90
26621;DHT22;14253;44.840;10.444;2023-06-22T05:49:14;24.70;99.90
26621;DHT22;14253;44.840;10.444;2023-06-22T05:51:40;24.80;99.90
26621;DHT22;14253;44.840;10.444;2023-06-22T05:54:06;24.80;99.90
26621;DHT22;14253;44.840;10.444;2023-06-22T05:56:34;24.80;99.90
26621;DHT22;14253;44.840;10.444;2023-06-22T05:59:00;24.90;99.90
26621;DHT22;14253;44.840;10.444;2023-06-22T06:01:26;24.90;99.90
26621;DHT22;14253;44.840;10.444;2023-06-22T06:03:52;25.00;99.90
26621;DHT22;14253;44.840;10.444;2023-06-22T06:06:19;25.00;99.90
26621;DHT22;14253;44.840;10.444;2023-06-22T06:08:54;25.00;99.90
26621;DHT22;14253;44.840;10.444;2023-06-22T06:11:21;25.00;99.90
26621;DHT22;14253;44.840;10.444;2023-06-22T06:13:47;25.00;99.90
26621;DHT22;14253;44.840;10.444;2023-06-22T06:16:13;25.10;99.90
26621;DHT22;14253;44.840;10.444;2023-06-22T06:18:39;25.20;99.90
26621;DHT22;14253;44.840;10.444;2023-06-22T06:21:05;25.40;99.90
26621;DHT22;14253;44.840;10.444;2023-06-22T06:23:31;25.50;99.90
26621;DHT22;14253;44.840;10.444;2023-06-22T06:25:57;25.60;99.90
26621;DHT22;14253;44.840;10.444;2023-06-22T06:28:25;25.70;99.90
26621;DHT22;14253;44.840;10.444;2023-06-22T06:30:51;25.80;99.90
26621;DHT22;14253;44.840;10.444;2023-06-22T06:33:17;26.00;99.90
26621;DHT22;14253;44.840;10.444;2023-06-22T06:35:43;26.00;99.90
26621;DHT22;14253;44.840;10.444;2023-06-22T06:38:09;26.20;99.90
26621;DHT22;14253;44.840;10.444;2023-06-22T06:40:36;26.40;99.90
26621;DHT22;14253;44.840;10.444;2023-06-22T06:43:02;26.60;99.90
26621;DHT22;14253;44.840;10.444;2023-06-22T06:45:28;26.70;99.90
26621;DHT22;14253;44.840;10.444;2023-06-22T06:47:56;26.80;99.90
26621;DHT22;14253;44.840;10.444;2023-06-22T06:50:22;26.80;99.90
26621;DHT22;14253;44.840;10.444;2023-06-22T06:52:48;27.00;99.90
26621;DHT22;14253;44.840;10.444;2023-06-22T06:55:16;27.30;99.90
26621;DHT22;14253;44.840;10.444;2023-06-22T06:57:42;27.50;99.90
26621;DHT22;14253;44.840;10.444;2023-06-22T07:00:10;27.80;99.90
26621;DHT22;14253;44.840;10.444;2023-06-22T07:02:44;28.00;99.90
26621;DHT22;14253;44.840;10.444;2023-06-22T07:05:12;28.20;99.90
26621;DHT22;14253;44.840;10.444;2023-06-22T07:07:38;28.60;99.90
26621;DHT22;14253;44.840;10.444;2023-06-22T07:10:05;28.80;99.90
26621;DHT22;14253;44.840;10.444;2023-06-22T07:12:31;29.20;99.90
26621;DHT22;14253;44.840;10.444;2023-06-22T07:15:05;29.40;99.90
26621;DHT22;14253;44.840;10.444;2023-06-22T07:17:34;29.30;99.90
26621;DHT22;14253;44.840;10.444;2023-06-22T07:20:01;29.30;99.90
26621;DHT22;14253;44.840;10.444;2023-06-22T07:22:27;29.20;99.90
26621;DHT22;14253;44.840;10.444;2023-06-22T07:24:53;29.30;99.90
26621;DHT22;14253;44.840;10.444;2023-06-22T07:27:19;29.30;99.90
26621;DHT22;14253;44.840;10.444;2023-06-22T07:29:45;29.20;99.90
26621;DHT22;14253;44.840;10.444;2023-06-22T07:32:11;29.20;99.90
26621;DHT22;14253;44.840;10.444;2023-06-22T07:34:37;29.30;99.90
26621;DHT22;14253;44.840;10.444;2023-06-22T07:37:04;29.20;99.90
26621;DHT22;14253;44.840;10.444;2023-06-22T07:39:30;29.10;99.90
26621;DHT22;14253;44.840;10.444;2023-06-22T07:41:56;29.00;99.90
26621;DHT22;14253;44.840;10.444;2023-06-22T07:44:22;28.90;99.90
26621;DHT22;14253;44.840;10.444;2023-06-22T07:46:48;29.10;99.90
26621;DHT22;14253;44.840;10.444;2023-06-22T07:49:14;29.30;99.90
26621;DHT22;14253;44.840;10.444;2023-06-22T07:51:40;29.60;99.90
26621;DHT22;14253;44.840;10.444;2023-06-22T07:54:06;29.80;99.90
26621;DHT22;14253;44.840;10.444;2023-06-22T07:56:32;29.80;99.90
26621;DHT22;14253;44.840;10.444;2023-06-22T07:58:58;30.00;99.90
26621;DHT22;14253;44.840;10.444;2023-06-22T08:01:26;30.10;99.90
26621;DHT22;14253;44.840;10.444;2023-06-22T08:03:52;30.30;99.90
26621;DHT22;14253;44.840;10.444;2023-06-22T08:06:18;30.40;99.90
26621;DHT22;14253;44.840;10.444;2023-06-22T08:08:44;30.50;99.90
26621;DHT22;14253;44.840;10.444;2023-06-22T08:11:14;30.70;99.90
26621;DHT22;14253;44.840;10.444;2023-06-22T08:13:40;30.60;99.90
26621;DHT22;14253;44.840;10.444;2023-06-22T08:16:06;30.70;99.90
26621;DHT22;14253;44.840;10.444;2023-06-22T08:18:33;30.90;99.90
26621;DHT22;14253;44.840;10.444;2023-06-22T08:20:59;30.80;99.90
26621;DHT22;14253;44.840;10.444;2023-06-22T08:23:25;30.90;99.90
26621;DHT22;14253;44.840;10.444;2023-06-22T08:25:51;31.10;99.90
26621;DHT22;14253;44.840;10.444;2023-06-22T08:28:17;30.80;99.90
26621;DHT22;14253;44.840;10.444;2023-06-22T08:30:43;30.70;99.90
26621;DHT22;14253;44.840;10.444;2023-06-22T08:33:09;30.80;99.90
26621;DHT22;14253;44.840;10.444;2023-06-22T08:35:35;31.20;99.90
26621;DHT22;14253;44.840;10.444;2023-06-22T08:38:01;31.30;99.90
26621;DHT22;14253;44.840;10.444;2023-06-22T08:40:27;31.50;99.90
26621;DHT22;14253;44.840;10.444;2023-06-22T08:42:55;31.60;99.90
26621;DHT22;14253;44.840;10.444;2023-06-22T08:45:21;32.10;99.90
26621;DHT22;14253;44.840;10.444;2023-06-22T08:47:47;31.80;99.90
26621;DHT22;14253;44.840;10.444;2023-06-22T08:50:13;31.50;99.90
26621;DHT22;14253;44.840;10.444;2023-06-22T08:52:39;31.20;99.90
26621;DHT22;14253;44.840;10.444;2023-06-22T08:55:09;31.50;99.90
26621;DHT22;14253;44.840;10.444;2023-06-22T08:57:36;31.50;99.90
26621;DHT22;14253;44.840;10.444;2023-06-22T09:00:07;31.50;99.90
26621;DHT22;14253;44.840;10.444;2023-06-22T09:02:40;31.50;99.90
26621;DHT22;14253;44.840;10.444;2023-06-22T09:05:06;31.60;99.90
26621;DHT22;14253;44.840;10.444;2023-06-22T09:07:32;31.80;99.90
26621;DHT22;14253;44.840;10.444;2023-06-22T09:10:00;32.10;99.90
26621;DHT22;14253;44.840;10.444;2023-06-22T09:12:26;32.20;99.90
26621;DHT22;14253;44.840;10.444;2023-06-22T09:14:53;32.10;99.90
26621;DHT22;14253;44.840;10.444;2023-06-22T09:17:19;32.40;99.90
26621;DHT22;14253;44.840;10.444;2023-06-22T09:19:45;32.60;99.90
26621;DHT22;14253;44.840;10.444;2023-06-22T09:22:11;32.90;99.90
26621;DHT22;14253;44.840;10.444;2023-06-22T09:24:37;32.90;99.90
26621;DHT22;14253;44.840;10.444;2023-06-22T09:27:03;33.10;99.90
26621;DHT22;14253;44.840;10.444;2023-06-22T09:29:29;33.20;99.90
26621;DHT22;14253;44.840;10.444;2023-06-22T09:32:02;33.20;99.90
26621;DHT22;14253;44.840;10.444;2023-06-22T09:34:28;32.90;99.90
26621;DHT22;14253;44.840;10.444;2023-06-22T09:36:53;33.00;99.90
26621;DHT22;14253;44.840;10.444;2023-06-22T09:39:20;33.50;99.90
26621;DHT22;14253;44.840;10.444;2023-06-22T09:41:46;33.80;99.90
26621;DHT22;14253;44.840;10.444;2023-06-22T09:44:12;34.10;99.90
26621;DHT22;14253;44.840;10.444;2023-06-22T09:46:38;34.30;99.90
26621;DHT22;14253;44.840;10.444;2023-06-22T09:49:04;34.60;99.90
26621;DHT22;14253;44.840;10.444;2023-06-22T09:51:30;34.50;99.90
26621;DHT22;14253;44.840;10.444;2023-06-22T09:53:58;34.10;99.90
26621;DHT22;14253;44.840;10.444;2023-06-22T09:56:24;34.10;99.90
26621;DHT22;14253;44.840;10.444;2023-06-22T09:58:50;34.40;99.90
26621;DHT22;14253;44.840;10.444;2023-06-22T10:01:18;34.60;99.90
26621;DHT22;14253;44.840;10.444;2023-06-22T10:03:44;34.30;99.90
26621;DHT22;14253;44.840;10.444;2023-06-22T10:06:10;34.80;99.90
26621;DHT22;14253;44.840;10.444;2023-06-22T10:08:36;34.90;99.90
26621;DHT22;14253;44.840;10.444;2023-06-22T10:11:03;35.00;99.90
26621;DHT22;14253;44.840;10.444;2023-06-22T10:13:30;34.80;99.90
26621;DHT22;14253;44.840;10.444;2023-06-22T10:15:56;34.90;99.90
26621;DHT22;14253;44.840;10.444;2023-06-22T10:18:22;34.70;99.90
26621;DHT22;14253;44.840;10.444;2023-06-22T10:20:49;34.70;99.90
26621;DHT22;14253;44.840;10.444;2023-06-22T10:23:19;34.70;99.90
26621;DHT22;14253;44.840;10.444;2023-06-22T10:25:45;34.70;99.90
26621;DHT22;14253;44.840;10.444;2023-06-22T10:28:11;34.90;99.90
26621;DHT22;14253;44.840;10.444;2023-06-22T10:30:41;35.10;99.90
26621;DHT22;14253;44.840;10.444;2023-06-22T10:33:11;35.30;99.90
26621;DHT22;14253;44.840;10.444;2023-06-22T10:35:37;35.60;99.90
26621;DHT22;14253;44.840;10.444;2023-06-22T10:38:04;35.60;99.90
26621;DHT22;14253;44.840;10.444;2023-06-22T10:40:30;35.60;99.90
26621;DHT22;14253;44.840;10.444;2023-06-22T10:42:56;35.90;99.90
26621;DHT22;14253;44.840;10.444;2023-06-22T10:45:22;35.80;99.90
26621;DHT22;14253;44.840;10.444;2023-06-22T10:47:48;35.70;99.90
26621;DHT22;14253;44.840;10.444;2023-06-22T10:50:14;36.10;99.90
26621;DHT22;14253;44.840;10.444;2023-06-22T10:52:40;35.80;99.90
26621;DHT22;14253;44.840;10.444;2023-06-22T10:55:08;36.10;99.90
26621;DHT22;14253;44.840;10.444;2023-06-22T10:57:34;36.10;99.90
26621;DHT22;14253;44.840;10.444;2023-06-22T11:00:00;35.90;99.90
26621;DHT22;14253;44.840;10.444;2023-06-22T11:02:26;35.90;99.90
26621;DHT22;14253;44.840;10.444;2023-06-22T11:04:53;36.10;99.90
26621;DHT22;14253;44.840;10.444;2023-06-22T11:07:19;36.00;99.90
26621;DHT22;14253;44.840;10.444;2023-06-22T11:09:45;36.20;99.90
26621;DHT22;14253;44.840;10.444;2023-06-22T11:12:11;36.50;99.90
26621;DHT22;14253;44.840;10.444;2023-06-22T11:14:39;36.60;99.90
26621;DHT22;14253;44.840;10.444;2023-06-22T11:17:05;36.60;99.90
26621;DHT22;14253;44.840;10.444;2023-06-22T11:19:31;36.40;99.90
26621;DHT22;14253;44.840;10.444;2023-06-22T11:21:57;36.30;99.90
26621;DHT22;14253;44.840;10.444;2023-06-22T11:24:23;36.30;99.90
26621;DHT22;14253;44.840;10.444;2023-06-22T11:26:49;36.30;99.90
26621;DHT22;14253;44.840;10.444;2023-06-22T11:29:15;36.30;99.90
26621;DHT22;14253;44.840;10.444;2023-06-22T11:31:41;36.40;99.90
26621;DHT22;14253;44.840;10.444;2023-06-22T11:34:08;36.30;99.90
26621;DHT22;14253;44.840;10.444;2023-06-22T11:36:34;36.20;99.90
26621;DHT22;14253;44.840;10.444;2023-06-22T11:39:01;36.40;99.90
26621;DHT22;14253;44.840;10.444;2023-06-22T11:41:27;36.30;99.90
26621;DHT22;14253;44.840;10.444;2023-06-22T11:43:53;36.10;99.90
26621;DHT22;14253;44.840;10.444;2023-06-22T11:46:19;36.00;99.90
26621;DHT22;14253;44.840;10.444;2023-06-22T11:48:45;35.90;99.90
26621;DHT22;14253;44.840;10.444;2023-06-22T11:51:11;36.00;99.90
26621;DHT22;14253;44.840;10.444;2023-06-22T11:53:37;36.10;99.90
26621;DHT22;14253;44.840;10.444;2023-06-22T11:56:03;36.30;99.90
26621;DHT22;14253;44.840;10.444;2023-06-22T11:58:29;36.30;99.90
26621;DHT22;14253;44.840;10.444;2023-06-22T12:00:55;36.40;99.90
26621;DHT22;14253;44.840;10.444;2023-06-22T12:03:21;36.60;99.90
26621;DHT22;14253;44.840;10.444;2023-06-22T12:05:47;36.70;99.90
26621;DHT22;14253;44.840;10.444;2023-06-22T12:08:14;36.60;99.90
26621;DHT22;14253;44.840;10.444;2023-06-22T12:10:40;36.70;99.90
26621;DHT22;14253;44.840;10.444;2023-06-22T12:13:06;36.90;99.90
26621;DHT22;14253;44.840;10.444;2023-06-22T12:15:31;36.80;99.90
26621;DHT22;14253;44.840;10.444;2023-06-22T12:17:57;36.90;99.90
26621;DHT22;14253;44.840;10.444;2023-06-22T12:20:23;36.90;99.90
26621;DHT22;14253;44.840;10.444;2023-06-22T12:22:49;36.80;99.90
26621;DHT22;14253;44.840;10.444;2023-06-22T12:25:17;36.80;99.90
26621;DHT22;14253;44.840;10.444;2023-06-22T12:27:43;36.80;99.90
26621;DHT22;14253;44.840;10.444;2023-06-22T12:30:09;36.60;99.90
26621;DHT22;14253;44.840;10.444;2023-06-22T12:32:35;36.60;99.90
26621;DHT22;14253;44.840;10.444;2023-06-22T12:35:01;36.70;99.90
26621;DHT22;14253;44.840;10.444;2023-06-22T12:37:27;36.60;99.90
26621;DHT22;14253;44.840;10.444;2023-06-22T12:39:54;36.60;99.90
26621;DHT22;14253;44.840;10.444;2023-06-22T12:42:20;36.70;99.90
26621;DHT22;14253;44.840;10.444;2023-06-22T12:44:46;36.60;99.90
26621;DHT22;14253;44.840;10.444;2023-06-22T12:47:12;36.60;99.90
26621;DHT22;14253;44.840;10.444;2023-06-22T12:49:39;36.40;99.90
26621;DHT22;14253;44.840;10.444;2023-06-22T12:52:11;36.40;99.90
26621;DHT22;14253;44.840;10.444;2023-06-22T12:54:37;35.90;99.90
26621;DHT22;14253;44.840;10.444;2023-06-22T12:57:03;35.80;99.90
26621;DHT22;14253;44.840;10.444;2023-06-22T12:59:29;36.10;99.90
26621;DHT22;14253;44.840;10.444;2023-06-22T13:01:55;36.30;99.90
26621;DHT22;14253;44.840;10.444;2023-06-22T13:04:21;36.50;99.90
26621;DHT22;14253;44.840;10.444;2023-06-22T13:06:47;36.70;99.90
26621;DHT22;14253;44.840;10.444;2023-06-22T13:09:14;36.60;99.90
26621;DHT22;14253;44.840;10.444;2023-06-22T13:11:41;36.50;99.90
26621;DHT22;14253;44.840;10.444;2023-06-22T13:14:07;36.10;99.90
26621;DHT22;14253;44.840;10.444;2023-06-22T13:16:33;35.90;99.90
26621;DHT22;14253;44.840;10.444;2023-06-22T13:18:59;35.80;99.90
26621;DHT22;14253;44.840;10.444;2023-06-22T13:21:25;35.70;99.90
26621;DHT22;14253;44.840;10.444;2023-06-22T13:23:51;35.40;99.90
26621;DHT22;14253;44.840;10.444;2023-06-22T13:26:17;35.40;99.90
26621;DHT22;14253;44.840;10.444;2023-06-22T13:28:43;35.40;99.90
26621;DHT22;14253;44.840;10.444;2023-06-22T13:31:09;35.60;99.90
26621;DHT22;14253;44.840;10.444;2023-06-22T13:33:35;35.70;99.90
26621;DHT22;14253;44.840;10.444;2023-06-22T13:36:01;35.50;99.90
26621;DHT22;14253;44.840;10.444;2023-06-22T13:38:29;35.40;99.90
26621;DHT22;14253;44.840;10.444;2023-06-22T13:40:56;35.30;99.90
26621;DHT22;14253;44.840;10.444;2023-06-22T13:43:24;35.30;99.90
26621;DHT22;14253;44.840;10.444;2023-06-22T13:45:50;35.20;99.90
26621;DHT22;14253;44.840;10.444;2023-06-22T13:48:16;35.20;99.90
26621;DHT22;14253;44.840;10.444;2023-06-22T13:50:42;35.20;99.90
26621;DHT22;14253;44.840;10.444;2023-06-22T13:53:08;34.90;99.90
26621;DHT22;14253;44.840;10.444;2023-06-22T13:55:34;34.80;99.90
26621;DHT22;14253;44.840;10.444;2023-06-22T13:58:00;34.80;99.90
26621;DHT22;14253;44.840;10.444;2023-06-22T14:00:26;34.80;99.90
26621;DHT22;14253;44.840;10.444;2023-06-22T14:02:53;34.70;99.90
26621;DHT22;14253;44.840;10.444;2023-06-22T14:05:20;34.70;99.90
26621;DHT22;14253;44.840;10.444;2023-06-22T14:07:46;34.60;99.90
26621;DHT22;14253;44.840;10.444;2023-06-22T14:10:12;34.60;99.90
26621;DHT22;14253;44.840;10.444;2023-06-22T14:12:38;34.40;99.90
26621;DHT22;14253;44.840;10.444;2023-06-22T14:15:05;34.30;99.90
26621;DHT22;14253;44.840;10.444;2023-06-22T14:17:31;34.20;99.90
26621;DHT22;14253;44.840;10.444;2023-06-22T14:19:57;34.20;99.90
26621;DHT22;14253;44.840;10.444;2023-06-22T14:22:23;34.40;99.90
26621;DHT22;14253;44.840;10.444;2023-06-22T14:24:49;34.50;99.90
26621;DHT22;14253;44.840;10.444;2023-06-22T14:27:16;34.50;99.90
26621;DHT22;14253;44.840;10.444;2023-06-22T14:29:42;34.70;99.90
26621;DHT22;14253;44.840;10.444;2023-06-22T14:32:08;34.70;99.90
26621;DHT22;14253;44.840;10.444;2023-06-22T14:34:35;34.80;99.90
26621;DHT22;14253;44.840;10.444;2023-06-22T14:37:06;35.00;99.90
26621;DHT22;14253;44.840;10.444;2023-06-22T14:39:32;35.00;99.90
26621;DHT22;14253;44.840;10.444;2023-06-22T14:41:58;34.90;99.90
26621;DHT22;14253;44.840;10.444;2023-06-22T14:44:26;34.90;99.90
26621;DHT22;14253;44.840;10.444;2023-06-22T14:46:55;34.70;99.90
26621;DHT22;14253;44.840;10.444;2023-06-22T14:49:21;34.70;99.90
26621;DHT22;14253;44.840;10.444;2023-06-22T14:51:47;34.50;99.90
26621;DHT22;14253;44.840;10.444;2023-06-22T14:54:13;34.50;99.90
26621;DHT22;14253;44.840;10.444;2023-06-22T14:56:39;34.60;99.90
26621;DHT22;14253;44.840;10.444;2023-06-22T14:59:06;34.50;99.90
26621;DHT22;14253;44.840;10.444;2023-06-22T15:01:32;34.60;99.90
26621;DHT22;14253;44.840;10.444;2023-06-22T15:03:58;34.60;99.90
26621;DHT22;14253;44.840;10.444;2023-06-22T15:06:24;34.60;99.90
26621;DHT22;14253;44.840;10.444;2023-06-22T15:08:50;34.50;99.90
26621;DHT22;14253;44.840;10.444;2023-06-22T15:11:16;34.40;99.90
26621;DHT22;14253;44.840;10.444;2023-06-22T15:13:42;34.20;99.90
26621;DHT22;14253;44.840;10.444;2023-06-22T15:16:08;34.30;99.90
26621;DHT22;14253;44.840;10.444;2023-06-22T15:18:35;34.20;99.90
26621;DHT22;14253;44.840;10.444;2023-06-22T15:39:02;34.20;99.90